Time;durP1;ratioP1;P1;durP2;ratioP2;P2;SDS_P1;SDS_P2;PMS_P1;PMS_P2;Temp;Humidity;BMP_temperature;BMP_pressure;BME280_temperature;BME280_humidity;BME280_pressure;Samples;Min_cycle;Max_cycle;Signal;HPM_P1;HPM_P2
2023/03/01 00:02:19;;;;;;;3.83;1.90;;;18.90;56.70;;;;;;4740653;29;87164;-84
2023/03/01 00:04:57;;;;;;;3.63;1.90;;;18.80;56.50;;;;;;4742544;29;88433;-85
2023/03/01 00:07:24;;;;;;;4.30;2.00;;;18.80;56.50;;;;;;4741925;29;87435;-85
2023/03/01 00:09:50;;;;;;;4.65;2.70;;;18.80;56.80;;;;;;4742247;29;87383;-85
2023/03/01 00:12:16;;;;;;;3.45;2.17;;;18.80;56.70;;;;;;4741569;29;87455;-85
2023/03/01 00:14:41;;;;;;;7.95;2.83;;;18.80;56.50;;;;;;4742134;29;87833;-85
2023/03/01 00:17:07;;;;;;;5.75;2.58;;;18.80;56.80;;;;;;4742828;29;87677;-85
2023/03/01 00:29:45;;;;;;;2.78;2.05;;;18.70;56.70;;;;;;4742174;29;86930;-84
2023/03/01 00:32:10;;;;;;;5.38;2.15;;;18.70;56.60;;;;;;4743140;29;87022;-84
2023/03/01 00:34:36;;;;;;;4.15;2.42;;;18.70;56.60;;;;;;4742676;29;87469;-85
2023/03/01 00:37:10;;;;;;;3.63;2.17;;;18.70;56.80;;;;;;4747798;29;91890;-86
2023/03/01 00:39:36;;;;;;;3.50;1.98;;;18.60;56.70;;;;;;4743700;29;87501;-84
2023/03/01 00:45:24;;;;;;;4.65;2.63;;;18.60;56.50;;;;;;4741605;29;87368;-85
2023/03/01 00:47:50;;;;;;;4.70;2.15;;;18.60;56.60;;;;;;4741252;29;89212;-85
2023/03/01 00:50:17;;;;;;;3.92;2.10;;;18.60;56.60;;;;;;4742267;29;87704;-85
2023/03/01 00:52:43;;;;;;;4.10;1.88;;;18.60;56.50;;;;;;4742356;29;87242;-85
2023/03/01 00:55:09;;;;;;;3.97;2.10;;;18.60;56.60;;;;;;4740410;29;88300;-85
2023/03/01 01:07:59;;;;;;;3.25;2.10;;;18.50;56.70;;;;;;4742050;29;86394;-85
2023/03/01 01:10:25;;;;;;;2.85;1.63;;;18.50;56.60;;;;;;4741193;29;88803;-85
2023/03/01 01:12:50;;;;;;;4.10;2.05;;;18.50;56.70;;;;;;4741836;29;88319;-85
2023/03/01 01:15:16;;;;;;;3.92;2.17;;;18.50;56.60;;;;;;4740710;29;88028;-85
2023/03/01 01:17:42;;;;;;;3.10;1.92;;;18.50;56.70;;;;;;4741718;29;87385;-85
2023/03/01 01:30:31;;;;;;;3.22;1.90;;;18.40;56.60;;;;;;4746374;29;87064;-85
2023/03/01 01:32:57;;;;;;;4.07;2.25;;;18.40;56.40;;;;;;4745561;29;91717;-84
2023/03/01 01:35:22;;;;;;;4.50;2.30;;;18.40;56.40;;;;;;4746229;29;88227;-85
2023/03/01 01:37:48;;;;;;;3.10;2.05;;;18.40;56.50;;;;;;4746978;29;87428;-85
2023/03/01 01:40:14;;;;;;;2.92;1.95;;;18.40;56.40;;;;;;4747552;29;87497;-85
2023/03/01 01:42:39;;;;;;;2.92;1.83;;;18.40;56.50;;;;;;4761217;29;90496;-85
2023/03/01 01:51:54;;;;;;;3.20;1.83;;;18.30;56.50;;;;;;4747066;29;90393;-85
2023/03/01 01:54:35;;;;;;;3.58;2.15;;;18.30;56.50;;;;;;4746571;29;88961;-85
2023/03/01 01:57:08;;;;;;;2.75;2.05;;;18.30;56.50;;;;;;4748111;29;88273;-85
2023/03/01 01:59:35;;;;;;;2.97;1.92;;;18.30;56.50;;;;;;4746935;29;86923;-85
2023/03/01 02:02:03;;;;;;;2.88;1.92;;;18.30;56.60;;;;;;4746077;29;86880;-85
2023/03/01 02:04:30;;;;;;;2.22;1.80;;;18.30;56.60;;;;;;4747399;29;88515;-85
2023/03/01 02:10:18;;;;;;;4.28;2.08;;;18.30;56.60;;;;;;4744594;29;87981;-85
2023/03/01 02:12:44;;;;;;;2.80;1.73;;;18.20;56.60;;;;;;4747943;29;87429;-85
2023/03/01 02:15:10;;;;;;;2.60;1.65;;;18.20;56.40;;;;;;4745633;29;88979;-85
2023/03/01 02:17:35;;;;;;;2.67;1.75;;;18.20;56.60;;;;;;4745915;29;88282;-85
2023/03/01 02:23:22;;;;;;;4.13;2.38;;;18.20;56.60;;;;;;4746978;29;87606;-85
2023/03/01 02:26:17;;;;;;;3.05;1.88;;;18.20;56.50;;;;;;4747543;29;87473;-85
2023/03/01 02:28:44;;;;;;;2.60;1.70;;;18.20;56.50;;;;;;4699783;30;88449;-84
2023/03/01 02:34:04;;;;;;;3.25;1.80;;;18.10;56.40;;;;;;4696916;30;87443;-85
2023/03/01 02:36:36;;;;;;;2.80;1.88;;;18.10;56.60;;;;;;4697350;30;89579;-84
2023/03/01 02:39:05;;;;;;;3.08;1.80;;;18.10;56.40;;;;;;4681658;30;92140;-85
2023/03/01 02:41:35;;;;;;;2.83;1.77;;;18.10;56.50;;;;;;4697112;30;86913;-85
2023/03/01 02:44:01;;;;;;;3.42;2.03;;;18.10;56.50;;;;;;4697008;30;87448;-85
2023/03/01 02:46:27;;;;;;;3.45;2.03;;;18.10;56.40;;;;;;4674414;30;90480;-84
2023/03/01 02:48:55;;;;;;;3.90;2.25;;;18.10;56.50;;;;;;4682867;30;90881;-85
2023/03/01 02:51:33;;;;;;;3.47;2.20;;;18.10;56.50;;;;;;4682044;30;87891;-85
2023/03/01 02:54:10;;;;;;;3.30;1.98;;;18.00;56.30;;;;;;4696860;30;87712;-85
2023/03/01 02:56:35;;;;;;;2.35;1.70;;;18.00;56.40;;;;;;4696194;30;90004;-85
2023/03/01 02:59:02;;;;;;;4.32;2.28;;;18.00;56.40;;;;;;4696447;30;88886;-84
2023/03/01 03:01:38;;;;;;;2.83;1.92;;;18.00;56.40;;;;;;4681088;30;88346;-85
2023/03/01 03:04:09;;;;;;;2.50;2.00;;;18.00;56.30;;;;;;4697872;29;87332;-85
2023/03/01 03:06:36;;;;;;;2.30;1.73;;;18.00;56.30;;;;;;4741641;29;90353;-85
2023/03/01 03:09:02;;;;;;;2.63;1.67;;;18.00;56.30;;;;;;4742274;29;87326;-85
2023/03/01 03:21:42;;;;;;;1.70;1.55;;;17.90;56.30;;;;;;4743738;29;90384;-85
2023/03/01 03:24:08;;;;;;;2.40;1.83;;;17.90;56.30;;;;;;4742788;29;87387;-84
2023/03/01 03:26:34;;;;;;;2.65;1.90;;;17.90;56.40;;;;;;4742043;29;87691;-85
2023/03/01 03:29:00;;;;;;;2.40;1.83;;;17.90;56.30;;;;;;4740227;29;92722;-85
2023/03/01 03:31:26;;;;;;;2.70;1.73;;;17.80;56.20;;;;;;4743624;29;89228;-85
2023/03/01 03:33:52;;;;;;;2.40;1.75;;;17.80;56.20;;;;;;4743994;29;87281;-85
2023/03/01 03:36:22;;;;;;;2.53;2.00;;;17.90;56.30;;;;;;4743085;29;87531;-85
2023/03/01 03:38:51;;;;;;;3.97;2.03;;;17.80;56.30;;;;;;4742579;29;88649;-84
2023/03/01 03:44:44;;;;;;;2.78;1.50;;;17.80;56.20;;;;;;4742647;29;87630;-84
2023/03/01 03:47:10;;;;;;;2.53;1.75;;;17.80;56.20;;;;;;4742518;29;87206;-84
2023/03/01 03:49:35;;;;;;;3.90;1.92;;;17.80;56.30;;;;;;4742421;29;88142;-85
2023/03/01 03:52:01;;;;;;;3.38;1.75;;;17.80;56.30;;;;;;4743777;29;87903;-85
2023/03/01 03:54:26;;;;;;;3.13;2.10;;;17.70;56.30;;;;;;4742474;29;87890;-84
2023/03/01 03:56:52;;;;;;;2.15;1.70;;;17.80;56.20;;;;;;4743059;29;87426;-85
2023/03/01 03:59:18;;;;;;;2.05;1.60;;;17.80;56.30;;;;;;4743055;29;88750;-85
2023/03/01 04:01:45;;;;;;;2.97;1.73;;;17.80;56.20;;;;;;4741282;29;88254;-85
2023/03/01 04:04:10;;;;;;;1.90;1.70;;;17.70;56.20;;;;;;4743308;29;87803;-85
2023/03/01 04:06:45;;;;;;;2.80;2.00;;;17.70;56.20;;;;;;4743778;29;87350;-84
2023/03/01 04:09:11;;;;;;;3.92;1.92;;;17.70;56.20;;;;;;4742555;29;88561;-84
2023/03/01 04:11:38;;;;;;;2.08;1.60;;;17.70;56.20;;;;;;4757611;29;91105;-85
2023/03/01 04:14:04;;;;;;;3.22;1.90;;;17.70;56.20;;;;;;4742590;29;87444;-85
2023/03/01 04:16:30;;;;;;;2.28;1.60;;;17.70;56.10;;;;;;4742085;29;87370;-85
2023/03/01 04:36:28;;;;;;;1.58;1.33;;;17.70;56.20;;;;;;4741744;29;87012;-84
2023/03/01 04:38:54;;;;;;;;;;;17.60;56.00;;;;;;4743155;29;87508;-84
2023/03/01 04:41:22;;;;;;;2.30;1.80;;;17.60;56.10;;;;;;4749574;29;90474;-84
2023/03/01 04:43:48;;;;;;;1.90;1.40;;;17.60;56.10;;;;;;4741019;29;88657;-84
2023/03/01 04:46:16;;;;;;;4.22;2.20;;;17.60;56.10;;;;;;4741539;29;88294;-84
2023/03/01 04:48:43;;;;;;;2.70;1.90;;;17.60;56.20;;;;;;4742140;29;87971;-85
2023/03/01 04:51:13;;;;;;;2.80;1.80;;;17.60;56.30;;;;;;4742094;29;87962;-85
2023/03/01 04:53:39;;;;;;;2.60;1.75;;;17.60;56.30;;;;;;4742209;29;88712;-85
2023/03/01 04:56:05;;;;;;;2.13;1.55;;;17.60;56.20;;;;;;4741605;29;87786;-85
2023/03/01 05:01:57;;;;;;;1.75;1.40;;;17.60;56.20;;;;;;4740833;29;87108;-84
2023/03/01 05:04:23;;;;;;;2.25;1.70;;;17.60;56.10;;;;;;4747140;29;92061;-85
2023/03/01 05:06:50;;;;;;;3.17;1.63;;;17.60;56.10;;;;;;4766718;29;91923;-85
2023/03/01 05:09:16;;;;;;;2.05;1.30;;;17.50;56.10;;;;;;4766846;29;92872;-84
2023/03/01 05:15:06;;;;;;;2.85;1.65;;;17.50;56.00;;;;;;4763713;29;88260;-84
2023/03/01 05:17:33;;;;;;;1.85;1.40;;;17.60;56.00;;;;;;4763945;29;89265;-85
2023/03/01 05:19:59;;;;;;;2.15;1.85;;;17.60;55.90;;;;;;4763843;29;87506;-85
2023/03/01 05:22:25;;;;;;;2.03;1.60;;;17.50;55.90;;;;;;4763972;29;87928;-85
2023/03/01 05:24:51;;;;;;;2.92;1.95;;;17.50;55.90;;;;;;4766364;29;88620;-85
2023/03/01 05:27:16;;;;;;;1.67;1.40;;;17.50;55.80;;;;;;4765500;29;88189;-85
2023/03/01 05:29:42;;;;;;;3.05;1.83;;;17.50;55.80;;;;;;4751340;29;87118;-85
2023/03/01 05:32:08;;;;;;;2.13;1.50;;;17.50;55.80;;;;;;4764606;29;87085;-85
2023/03/01 05:34:36;;;;;;;2.55;1.60;;;17.50;55.70;;;;;;4765155;29;89559;-85
2023/03/01 05:37:02;;;;;;;2.58;1.77;;;17.50;55.70;;;;;;4747056;29;90223;-83
2023/03/01 05:39:29;;;;;;;1.92;1.52;;;17.50;55.70;;;;;;4740159;29;88358;-84
2023/03/01 05:41:57;;;;;;;2.97;1.88;;;17.50;55.80;;;;;;4740403;29;87113;-84
2023/03/01 05:45:13;;;;;;;2.28;1.55;;;17.50;55.80;;;;;;4755038;29;91703;-85
2023/03/01 05:47:44;;;;;;;1.90;1.50;;;17.50;55.70;;;;;;4741781;29;88432;-85
2023/03/01 05:50:21;;;;;;;2.30;1.45;;;17.50;56.30;;;;;;4740268;29;86915;-85
2023/03/01 05:53:04;;;;;;;1.85;1.40;;;17.60;55.60;;;;;;4741505;29;87435;-84
2023/03/01 05:55:32;;;;;;;1.30;1.15;;;17.60;55.50;;;;;;4741203;29;88035;-85
2023/03/01 05:58:20;;;;;;;1.92;1.45;;;17.60;55.50;;;;;;4741491;29;89245;-84
2023/03/01 06:00:47;;;;;;;1.80;1.50;;;17.60;55.40;;;;;;4740928;29;87433;-85
2023/03/01 06:03:15;;;;;;;2.00;1.48;;;17.60;55.30;;;;;;4739845;29;87302;-84
2023/03/01 06:05:42;;;;;;;2.83;1.88;;;17.60;55.30;;;;;;4741006;29;88816;-84
2023/03/01 06:08:10;;;;;;;1.85;1.60;;;17.50;55.30;;;;;;4743088;29;88997;-85
2023/03/01 06:10:35;;;;;;;2.33;1.70;;;17.50;55.40;;;;;;4750028;29;87854;-85
2023/03/01 06:13:01;;;;;;;2.85;1.60;;;17.50;55.40;;;;;;4743195;29;87590;-85
2023/03/01 06:15:27;;;;;;;4.03;1.63;;;17.50;55.90;;;;;;4744536;29;87830;-84
2023/03/01 06:17:56;;;;;;;2.75;1.40;;;17.60;55.20;;;;;;4743394;29;88601;-85
2023/03/01 06:20:30;;;;;;;3.25;1.65;;;17.60;55.20;;;;;;4743865;29;88073;-85
2023/03/01 06:22:56;;;;;;;4.57;1.33;;;17.70;55.00;;;;;;4745066;29;87927;-85
2023/03/01 06:25:24;;;;;;;4.43;1.50;;;17.80;55.10;;;;;;4743496;29;87924;-85
2023/03/01 06:27:51;;;;;;;6.68;1.70;;;17.80;54.80;;;;;;4745050;29;88380;-84
2023/03/01 06:30:20;;;;;;;2.40;1.45;;;17.90;54.80;;;;;;4746569;29;87933;-85
2023/03/01 06:32:45;;;;;;;3.83;1.55;;;18.10;54.40;;;;;;4743456;29;87442;-85
2023/03/01 06:39:13;;;;;;;5.18;1.70;;;18.40;54.50;;;;;;4737397;29;88434;-85
2023/03/01 06:41:41;;;;;;;6.95;1.95;;;18.60;54.70;;;;;;4757469;29;86950;-85
2023/03/01 06:44:12;;;;;;;5.20;1.88;;;18.80;54.50;;;;;;4757349;29;90813;-85
2023/03/01 06:46:39;;;;;;;4.07;1.70;;;18.90;54.30;;;;;;4743127;29;88350;-85
2023/03/01 06:49:09;;;;;;;5.03;2.05;;;19.00;54.40;;;;;;4744918;29;87410;-85
2023/03/01 06:51:37;;;;;;;3.00;1.55;;;19.20;54.10;;;;;;4751937;29;87657;-84
2023/03/01 07:00:53;;;;;;;4.10;1.70;;;19.50;53.50;;;;;;4736114;29;92327;-84
2023/03/01 07:03:18;;;;;;;2.47;1.88;;;19.50;53.40;;;;;;4743158;29;87209;-85
2023/03/01 07:05:44;;;;;;;4.32;1.88;;;19.60;53.40;;;;;;4742582;29;87333;-85
2023/03/01 07:08:10;;;;;;;3.53;2.05;;;19.60;53.40;;;;;;4749746;29;90317;-84
2023/03/01 07:10:36;;;;;;;7.20;2.03;;;19.70;53.40;;;;;;4742756;29;88268;-85
2023/03/01 07:13:02;;;;;;;11.40;1.75;;;19.80;53.20;;;;;;4757655;29;87504;-85
2023/03/01 07:15:27;;;;;;;2.38;1.70;;;19.80;53.30;;;;;;4744810;29;87803;-84
2023/03/01 07:17:53;;;;;;;3.55;1.65;;;19.80;53.00;;;;;;4744020;29;88188;-85
2023/03/01 07:34:05;;;;;;;4.57;1.77;;;19.80;53.50;;;;;;4742862;29;91322;-84
2023/03/01 07:36:31;;;;;;;17.83;3.22;;;19.80;53.70;;;;;;4742671;29;87584;-82
2023/03/01 07:38:57;;;;;;;17.88;3.45;;;19.90;52.70;;;;;;4742964;29;87464;-82
2023/03/01 07:41:23;;;;;;;8.98;2.40;;;19.90;53.30;;;;;;4742115;29;88292;-82
2023/03/01 07:43:52;;;;;;;18.10;3.97;;;19.80;53.60;;;;;;4742767;29;88403;-82
2023/03/01 07:46:18;;;;;;;20.35;4.45;;;19.70;53.80;;;;;;4742414;29;88251;-83
2023/03/01 07:52:24;;;;;;;13.70;3.72;;;19.90;53.80;;;;;;4742648;29;92565;-84
2023/03/01 07:54:50;;;;;;;16.02;3.95;;;20.10;53.80;;;;;;4743154;29;88697;-84
2023/03/01 07:57:16;;;;;;;10.18;3.90;;;20.20;53.80;;;;;;4727768;29;87414;-82
2023/03/01 07:59:41;;;;;;;13.02;4.43;;;20.40;53.50;;;;;;4744241;29;87141;-83
2023/03/01 08:02:08;;;;;;;16.90;4.30;;;20.40;53.20;;;;;;4741192;29;90397;-83
2023/03/01 08:04:34;;;;;;;17.45;4.40;;;20.50;53.00;;;;;;4742163;29;87929;-83
2023/03/01 08:07:06;;;;;;;17.30;4.57;;;20.60;52.90;;;;;;4742047;29;87396;-83
2023/03/01 08:09:34;;;;;;;22.15;5.55;;;20.70;53.20;;;;;;4741729;29;91780;-83
2023/03/01 08:12:07;;;;;;;22.30;5.70;;;20.70;52.90;;;;;;4741792;29;89518;-84
2023/03/01 08:14:33;;;;;;;27.85;6.72;;;20.80;52.90;;;;;;4748677;29;90331;-83
2023/03/01 08:16:58;;;;;;;18.23;5.38;;;20.80;52.70;;;;;;4738327;29;88202;-85
2023/03/01 08:19:24;;;;;;;24.48;6.10;;;20.90;52.90;;;;;;4743486;29;87385;-85
2023/03/01 08:21:50;;;;;;;19.00;6.25;;;20.90;52.50;;;;;;4743714;29;87913;-86
2023/03/01 08:24:15;;;;;;;35.30;7.07;;;20.90;52.80;;;;;;4742710;29;87551;-86
2023/03/01 08:26:41;;;;;;;20.10;5.80;;;21.00;52.70;;;;;;4745517;29;87258;-85
2023/03/01 08:29:07;;;;;;;21.30;5.57;;;21.10;52.50;;;;;;4743010;29;87361;-84
2023/03/01 08:31:36;;;;;;;20.33;5.65;;;21.10;52.50;;;;;;4736105;29;87278;-84
2023/03/01 08:34:07;;;;;;;25.75;6.43;;;21.20;52.60;;;;;;4751688;29;88880;-85
2023/03/01 08:36:36;;;;;;;20.55;6.00;;;21.30;52.90;;;;;;4746083;29;87080;-84
2023/03/01 08:39:03;;;;;;;24.52;6.35;;;21.30;53.00;;;;;;4742127;29;90285;-84
2023/03/01 08:41:29;;;;;;;22.63;6.25;;;21.50;53.10;;;;;;4740822;29;89225;-85
2023/03/01 08:43:58;;;;;;;16.02;5.45;;;21.50;53.10;;;;;;4742033;29;89218;-87
2023/03/01 08:46:45;;;;;;;23.08;6.50;;;21.60;53.30;;;;;;4758476;29;87484;-86
2023/03/01 08:49:16;;;;;;;17.23;5.35;;;21.70;53.40;;;;;;4742152;29;86954;-86
2023/03/01 08:51:44;;;;;;;22.35;6.07;;;21.60;53.50;;;;;;4756903;29;90826;-86
2023/03/01 08:54:18;;;;;;;21.42;5.55;;;21.60;53.60;;;;;;4742398;29;87917;-85
2023/03/01 08:56:44;;;;;;;15.98;4.93;;;21.60;53.30;;;;;;4741721;29;87309;-84
2023/03/01 08:59:15;;;;;;;19.25;5.50;;;21.60;53.50;;;;;;4747974;29;88650;-85
2023/03/01 09:01:43;;;;;;;13.68;5.20;;;21.50;53.60;;;;;;4741342;29;89294;-86
2023/03/01 09:04:09;;;;;;;23.95;5.93;;;21.50;53.80;;;;;;4720872;29;88983;-87
2023/03/01 09:06:35;;;;;;;17.92;5.10;;;21.50;53.30;;;;;;4721448;29;88460;-87
2023/03/01 09:09:12;;;;;;;21.38;5.53;;;21.40;53.00;;;;;;4721492;29;87571;-87
2023/03/01 09:11:37;;;;;;;17.58;5.38;;;21.30;53.50;;;;;;4722041;29;87190;-86
2023/03/01 09:14:05;;;;;;;19.83;5.78;;;21.30;53.90;;;;;;4721402;29;88271;-86
2023/03/01 09:16:35;;;;;;;20.63;6.07;;;21.30;53.30;;;;;;4722170;29;87400;-86
2023/03/01 09:25:50;;;;;;;13.60;5.40;;;21.50;54.80;;;;;;4721317;29;86947;-87
2023/03/01 09:28:15;;;;;;;17.20;5.00;;;21.60;54.90;;;;;;4721831;29;88010;-87
2023/03/01 09:30:41;;;;;;;16.30;5.45;;;21.60;55.00;;;;;;4722454;29;87367;-87
2023/03/01 09:33:07;;;;;;;12.20;5.10;;;21.60;55.70;;;;;;4721589;29;91348;-89
2023/03/01 09:35:32;;;;;;;15.05;5.15;;;21.60;55.60;;;;;;4713543;29;89080;-88
2023/03/01 09:37:58;;;;;;;23.25;5.60;;;21.60;55.40;;;;;;4721190;29;87274;-86
2023/03/01 09:40:27;;;;;;;19.00;5.63;;;21.50;55.90;;;;;;4712754;29;90539;-88
2023/03/01 09:42:55;;;;;;;19.80;5.93;;;21.40;56.00;;;;;;4756336;29;88217;-86
2023/03/01 09:45:37;;;;;;;21.33;6.07;;;21.40;55.70;;;;;;4749905;29;91463;-87
2023/03/01 09:48:05;;;;;;;21.55;5.78;;;21.30;55.80;;;;;;4744564;29;87458;-87
2023/03/01 09:50:41;;;;;;;23.23;5.80;;;21.30;55.60;;;;;;4744935;29;87843;-86
2023/03/01 09:53:14;;;;;;;18.65;5.50;;;21.20;56.50;;;;;;4750142;29;91192;-86
2023/03/01 09:55:58;;;;;;;17.98;5.72;;;21.20;55.90;;;;;;4744238;29;88083;-86
2023/03/01 09:58:45;;;;;;;15.60;5.10;;;21.20;55.80;;;;;;4749600;29;88689;-87
2023/03/01 10:01:31;;;;;;;18.05;5.60;;;21.20;55.90;;;;;;4743875;29;87008;-86
2023/03/01 10:04:27;;;;;;;19.20;5.35;;;21.20;55.00;;;;;;4745420;29;88607;-87
2023/03/01 10:07:10;;;;;;;13.20;5.18;;;21.30;54.40;;;;;;4744738;29;93083;-85
2023/03/01 10:27:02;;;;;;;41.55;11.95;;;21.40;52.10;;;;;;4745273;29;87384;-86
2023/03/01 10:29:39;;;;;;;41.50;11.55;;;21.30;50.90;;;;;;4742795;29;89663;-86
2023/03/01 10:32:08;;;;;;;30.58;9.80;;;21.30;51.40;;;;;;4741850;29;88377;-87
2023/03/01 10:34:35;;;;;;;33.72;8.65;;;21.40;51.70;;;;;;4742915;29;90313;-85
2023/03/01 10:49:14;;;;;;;32.15;8.18;;;21.50;48.40;;;;;;4717602;29;88306;-86
2023/03/01 10:51:52;;;;;;;30.15;9.57;;;21.40;50.60;;;;;;4743909;29;92140;-85
2023/03/01 10:54:27;;;;;;;24.35;8.80;;;21.30;50.70;;;;;;4742450;29;90002;-85
2023/03/01 10:56:56;;;;;;;26.52;9.18;;;21.30;51.70;;;;;;4743698;29;88208;-85
2023/03/01 11:02:43;;;;;;;23.45;9.27;;;21.50;52.90;;;;;;4743510;29;87147;-85
2023/03/01 11:05:12;;;;;;;28.25;9.27;;;21.60;53.40;;;;;;4742486;29;88559;-85
2023/03/01 11:07:56;;;;;;;30.57;9.43;;;21.70;53.80;;;;;;4745202;29;87903;-86
2023/03/01 11:10:28;;;;;;;35.38;10.10;;;21.70;54.00;;;;;;4743932;29;87401;-86
2023/03/01 11:13:05;;;;;;;25.83;9.13;;;21.80;54.20;;;;;;4723567;29;89391;-87
2023/03/01 11:15:31;;;;;;;26.02;8.40;;;21.90;54.50;;;;;;4723120;29;92070;-86
2023/03/01 11:17:57;;;;;;;26.10;8.68;;;21.90;54.50;;;;;;4723509;29;87864;-86
2023/03/01 11:23:28;;;;;;;28.23;8.73;;;21.70;53.00;;;;;;4724454;29;87064;-86
2023/03/01 11:26:05;;;;;;;29.85;9.10;;;21.80;53.80;;;;;;4722546;29;92235;-86
2023/03/01 11:28:32;;;;;;;25.40;8.95;;;21.70;53.70;;;;;;4721627;29;92284;-87
2023/03/01 11:31:03;;;;;;;31.45;9.32;;;21.60;54.30;;;;;;4724126;29;87380;-86
2023/03/01 11:33:40;;;;;;;27.70;9.38;;;21.50;55.10;;;;;;4722293;29;93860;-86
2023/03/01 11:36:15;;;;;;;20.98;6.97;;;21.50;54.60;;;;;;4712168;29;92548;-86
2023/03/01 11:38:42;;;;;;;23.30;8.10;;;21.40;54.70;;;;;;4723375;29;89262;-86
2023/03/01 11:48:24;;;;;;;24.63;8.13;;;21.20;54.80;;;;;;4745112;29;87500;-87
2023/03/01 11:50:52;;;;;;;27.35;8.90;;;21.10;55.50;;;;;;4755891;29;90504;-86
2023/03/01 11:53:26;;;;;;;22.40;8.35;;;21.10;55.10;;;;;;4755626;29;88417;-87
2023/03/01 12:06:23;;;;;;;16.63;6.88;;;20.90;55.40;;;;;;4742812;29;87498;-87
2023/03/01 12:09:07;;;;;;;22.38;8.05;;;21.00;55.30;;;;;;4742862;29;87761;-87
2023/03/01 12:11:47;;;;;;;22.40;7.82;;;21.00;55.30;;;;;;4748449;29;92078;-86
2023/03/01 12:14:49;;;;;;;21.40;8.63;;;20.90;55.20;;;;;;4742003;29;88512;-86
2023/03/01 12:24:28;;;;;;;14.77;5.82;;;20.90;55.30;;;;;;4740517;29;88916;-87
2023/03/01 12:27:03;;;;;;;20.33;7.72;;;20.80;55.30;;;;;;4747570;29;92357;-87
2023/03/01 12:29:41;;;;;;;17.80;7.28;;;20.80;55.40;;;;;;4742247;29;87441;-87
2023/03/01 12:32:31;;;;;;;19.52;7.43;;;20.80;55.40;;;;;;4748405;29;89501;-86
2023/03/01 12:35:21;;;;;;;19.95;7.88;;;20.90;55.30;;;;;;4748497;29;91211;-87
2023/03/01 12:37:56;;;;;;;21.23;6.82;;;20.90;55.10;;;;;;4755147;29;89587;-86
2023/03/01 12:40:42;;;;;;;15.45;6.80;;;20.90;54.90;;;;;;4742965;29;87500;-86
2023/03/01 12:43:49;;;;;;;20.95;6.80;;;20.90;54.80;;;;;;4742733;29;87626;-85
2023/03/01 12:46:46;;;;;;;20.90;7.80;;;20.90;53.90;;;;;;4668929;30;87798;-84
2023/03/01 12:49:21;;;;;;;13.70;6.25;;;21.00;54.20;;;;;;4668706;30;88232;-86
2023/03/01 12:52:13;;;;;;;20.42;7.15;;;21.00;54.20;;;;;;4661706;30;88408;-86
2023/03/01 12:54:38;;;;;;;15.60;6.20;;;21.10;54.30;;;;;;4659886;30;92263;-86
2023/03/01 12:57:38;;;;;;;23.08;7.25;;;21.10;54.30;;;;;;4660199;30;89280;-86
2023/03/01 13:00:28;;;;;;;17.45;6.38;;;21.10;53.90;;;;;;4660613;30;87672;-87
2023/03/01 13:03:02;;;;;;;31.77;10.43;;;21.20;53.70;;;;;;4660090;30;87757;-87
2023/03/01 13:06:06;;;;;;;67.05;18.73;;;21.30;54.10;;;;;;4657620;30;87605;-87
2023/03/01 13:08:47;;;;;;;49.55;16.15;;;21.40;54.30;;;;;;4623008;30;90630;-87
2023/03/01 13:11:21;;;;;;;49.97;15.18;;;21.50;54.20;;;;;;4622777;30;91593;-86
2023/03/01 13:13:48;;;;;;;56.60;17.15;;;21.60;54.00;;;;;;4607833;30;87406;-85
2023/03/01 13:23:02;;;;;;;60.83;17.55;;;21.70;54.20;;;;;;4656036;30;87910;-87
2023/03/01 13:25:27;;;;;;;68.18;18.85;;;21.70;54.60;;;;;;4658569;30;87295;-87
2023/03/01 13:28:31;;;;;;;67.60;18.35;;;21.70;54.90;;;;;;4644010;30;87687;-86
2023/03/01 13:30:57;;;;;;;61.35;17.80;;;21.60;54.90;;;;;;4651368;30;92785;-87
2023/03/01 13:33:28;;;;;;;61.75;18.95;;;21.70;55.70;;;;;;4673434;30;92295;-86
2023/03/01 13:35:55;;;;;;;48.25;17.98;;;21.60;53.90;;;;;;4686603;30;87353;-86
2023/03/01 13:38:46;;;;;;;44.65;16.25;;;21.60;54.60;;;;;;4694422;30;87039;-86
2023/03/01 13:41:16;;;;;;;60.08;18.67;;;21.60;55.00;;;;;;4694067;30;88797;-85
2023/03/01 13:43:44;;;;;;;51.42;16.17;;;21.60;55.40;;;;;;4694612;30;88107;-86
2023/03/01 13:46:23;;;;;;;51.63;17.98;;;21.60;55.50;;;;;;4710714;29;88426;-85
2023/03/01 13:48:56;;;;;;;49.80;16.77;;;21.60;56.00;;;;;;4752680;29;87092;-85
2023/03/01 13:51:25;;;;;;;48.05;16.63;;;21.60;56.70;;;;;;4739415;29;88810;-85
2023/03/01 13:53:52;;;;;;;55.22;17.00;;;21.60;56.90;;;;;;4746485;29;89570;-86
2023/03/01 13:56:24;;;;;;;50.58;16.63;;;21.70;57.30;;;;;;4740014;29;87695;-86
2023/03/01 13:58:53;;;;;;;42.85;16.13;;;21.80;57.30;;;;;;4740733;29;87484;-86
2023/03/01 14:01:36;;;;;;;41.45;16.05;;;21.80;57.80;;;;;;4740450;29;88590;-86
2023/03/01 14:11:11;;;;;;;39.97;15.13;;;22.10;56.70;;;;;;4739197;29;87640;-86
2023/03/01 14:13:50;;;;;;;40.50;14.02;;;22.20;56.80;;;;;;4740480;29;88564;-86
2023/03/01 14:16:44;;;;;;;43.75;14.95;;;22.20;56.60;;;;;;4737125;29;93231;-87
2023/03/01 14:19:26;;;;;;;36.92;14.05;;;22.10;57.00;;;;;;4740481;29;87219;-86
2023/03/01 14:22:16;;;;;;;39.33;13.98;;;22.10;56.80;;;;;;4747593;29;90580;-87
2023/03/01 14:24:51;;;;;;;38.00;14.65;;;22.10;56.90;;;;;;4740246;29;93154;-87
2023/03/01 14:41:16;;;;;;;31.08;13.68;;;22.00;57.60;;;;;;4743711;29;87409;-87
2023/03/01 14:43:50;;;;;;;30.95;12.43;;;22.00;57.80;;;;;;4743571;29;88414;-87
2023/03/01 14:46:29;;;;;;;28.83;13.25;;;22.10;57.90;;;;;;4743404;29;88005;-87
2023/03/01 14:48:58;;;;;;;;;;;22.20;57.90;;;;;;4749448;29;89189;-87
2023/03/01 14:51:24;;;;;;;32.28;11.60;;;22.20;57.50;;;;;;4743917;29;87673;-88
2023/03/01 14:53:51;;;;;;;31.85;13.02;;;22.30;57.50;;;;;;4744563;29;87674;-87
2023/03/01 14:56:18;;;;;;;36.35;12.45;;;22.20;57.50;;;;;;4743228;29;87469;-86
2023/03/01 14:58:44;;;;;;;30.48;12.43;;;22.20;57.60;;;;;;4742782;29;88176;-87
2023/03/01 15:01:15;;;;;;;32.88;11.90;;;22.20;57.80;;;;;;4744403;29;88452;-87
2023/03/01 15:03:49;;;;;;;30.50;12.57;;;22.20;57.80;;;;;;4743381;29;87432;-87
2023/03/01 15:23:05;;;;;;;24.98;10.88;;;22.20;58.50;;;;;;4741207;29;87256;-88
2023/03/01 15:25:32;;;;;;;30.05;10.75;;;22.20;58.10;;;;;;4744907;29;87701;-87
2023/03/01 15:28:00;;;;;;;31.38;11.38;;;22.20;58.10;;;;;;4743239;29;86914;-88
2023/03/01 15:30:37;;;;;;;28.45;11.20;;;22.30;57.90;;;;;;4737513;29;88884;-87
2023/03/01 15:33:27;;;;;;;27.95;10.90;;;22.20;58.20;;;;;;4748039;29;91125;-88
2023/03/01 15:35:55;;;;;;;27.38;10.45;;;22.40;58.20;;;;;;4741353;29;88552;-88
2023/03/01 15:38:56;;;;;;;30.65;11.20;;;22.40;58.30;;;;;;4741791;29;88583;-87
2023/03/01 15:41:30;;;;;;;27.20;10.48;;;22.40;58.00;;;;;;4748132;29;90401;-87
2023/03/01 15:43:57;;;;;;;30.20;11.75;;;22.60;57.70;;;;;;4742798;29;88053;-87
2023/03/01 15:46:29;;;;;;;26.55;10.77;;;22.70;57.50;;;;;;4741979;29;88242;-87
2023/03/01 15:49:24;;;;;;;24.08;10.02;;;22.80;57.20;;;;;;4743715;29;86901;-87
2023/03/01 15:51:56;;;;;;;29.33;10.63;;;22.90;57.00;;;;;;4742647;29;92419;-88
2023/03/01 15:54:24;;;;;;;24.70;10.77;;;22.90;56.80;;;;;;4741962;29;88380;-86
2023/03/01 15:56:50;;;;;;;24.13;10.27;;;22.80;57.00;;;;;;4748433;29;91211;-86
2023/03/01 15:59:17;;;;;;;24.10;9.50;;;22.70;57.50;;;;;;4755575;29;87446;-86
2023/03/01 16:01:44;;;;;;;28.13;10.43;;;22.60;57.90;;;;;;4742541;29;87431;-87
2023/03/01 16:04:20;;;;;;;23.77;9.48;;;22.50;58.00;;;;;;4740378;29;88571;-87
2023/03/01 16:06:47;;;;;;;25.38;9.70;;;22.40;57.70;;;;;;4742256;29;92944;-87
2023/03/01 16:22:46;;;;;;;20.60;7.82;;;22.20;57.10;;;;;;4742546;29;87106;-83
2023/03/01 16:25:17;;;;;;;22.08;8.52;;;22.20;57.60;;;;;;4754912;29;90957;-84
2023/03/01 16:27:44;;;;;;;25.63;8.82;;;22.10;57.30;;;;;;4748847;29;91148;-83
2023/03/01 16:30:11;;;;;;;18.02;8.65;;;22.10;57.40;;;;;;4741321;29;87976;-83
2023/03/01 16:32:44;;;;;;;22.67;9.35;;;22.10;57.60;;;;;;4740476;29;88616;-82
2023/03/01 16:35:12;;;;;;;22.83;8.57;;;22.00;56.90;;;;;;4742340;29;88158;-84
2023/03/01 16:37:38;;;;;;;20.25;8.35;;;21.90;57.00;;;;;;4741857;29;88459;-84
2023/03/01 16:40:11;;;;;;;27.90;8.68;;;21.70;55.10;;;;;;4742164;29;88359;-84
2023/03/01 16:42:37;;;;;;;85.43;12.13;;;21.60;55.50;;;;;;4756572;29;87494;-84
2023/03/01 16:45:04;;;;;;;68.53;10.60;;;21.50;55.70;;;;;;4740915;29;87386;-84
2023/03/01 16:47:29;;;;;;;71.43;11.15;;;21.40;56.20;;;;;;4741100;29;87596;-84
2023/03/01 16:49:55;;;;;;;37.80;9.15;;;21.30;56.30;;;;;;4740587;29;88430;-83
2023/03/01 16:52:22;;;;;;;30.20;8.10;;;21.20;56.00;;;;;;4747973;29;87537;-83
2023/03/01 16:54:53;;;;;;;55.30;9.40;;;21.30;56.50;;;;;;4741636;29;89226;-83
2023/03/01 16:57:18;;;;;;;43.92;9.98;;;21.20;56.80;;;;;;4740695;29;89233;-83
2023/03/01 16:59:44;;;;;;;47.10;8.73;;;21.10;57.30;;;;;;4742034;29;88039;-83
2023/03/01 17:13:00;;;;;;;36.65;7.88;;;21.00;57.90;;;;;;4742763;29;87232;-88